Time;durP1;ratioP1;P1;durP2;ratioP2;P2;SDS_P1;SDS_P2;PMS_P1;PMS_P2;Temp;Humidity;BMP_temperature;BMP_pressure;BME280_temperature;BME280_humidity;BME280_pressure;Samples;Min_cycle;Max_cycle;Signal;HPM_P1;HPM_P2
2021/03/25 00:00:40;;;;;;;8.57;4.80;;;4.40;99.90;;;;;;5033128;28;20317;-80
2021/03/25 00:03:09;;;;;;;10.13;5.47;;;4.30;99.90;;;;;;5026941;28;20183;-80
2021/03/25 00:05:35;;;;;;;11.90;6.57;;;4.40;99.90;;;;;;5025225;28;20673;-80
2021/03/25 00:08:01;;;;;;;9.27;6.30;;;4.40;99.90;;;;;;5025006;28;20213;-81
2021/03/25 00:10:30;;;;;;;8.23;4.97;;;4.30;99.90;;;;;;5026575;28;20195;-80
2021/03/25 00:12:57;;;;;;;10.90;5.47;;;4.20;99.90;;;;;;5026929;28;20552;-80
2021/03/25 00:15:23;;;;;;;8.70;5.30;;;4.10;99.90;;;;;;5024517;28;20241;-80
2021/03/25 00:17:49;;;;;;;7.37;5.00;;;4.20;99.90;;;;;;5022598;28;20191;-80
2021/03/25 00:20:15;;;;;;;7.87;5.57;;;4.30;99.90;;;;;;5020488;28;20236;-81
2021/03/25 00:22:42;;;;;;;10.60;5.10;;;4.20;99.90;;;;;;5025145;28;20237;-80
2021/03/25 00:25:11;;;;;;;10.07;5.23;;;4.20;99.90;;;;;;5024728;28;20699;-80
2021/03/25 00:27:37;;;;;;;11.57;5.50;;;4.20;99.90;;;;;;5012020;28;20206;-80
2021/03/25 00:30:05;;;;;;;10.47;5.97;;;4.20;99.90;;;;;;5024640;28;20203;-80
2021/03/25 00:32:30;;;;;;;10.40;6.13;;;4.10;99.90;;;;;;5024459;28;21000;-80
2021/03/25 00:34:56;;;;;;;9.90;6.43;;;4.00;99.90;;;;;;5024821;28;20217;-80
2021/03/25 00:37:21;;;;;;;10.57;6.67;;;4.00;99.90;;;;;;5025968;28;20214;-80
2021/03/25 00:39:47;;;;;;;9.13;5.30;;;4.10;99.90;;;;;;5026589;28;20213;-80
2021/03/25 00:42:13;;;;;;;9.53;5.97;;;4.10;99.90;;;;;;5025835;28;20183;-80
2021/03/25 00:44:38;;;;;;;9.50;5.40;;;4.00;99.90;;;;;;5025130;28;20193;-80
2021/03/25 00:47:04;;;;;;;10.40;6.43;;;4.10;99.90;;;;;;5024702;28;20286;-80
2021/03/25 00:49:31;;;;;;;10.93;6.00;;;4.00;99.90;;;;;;5026009;28;20183;-80
2021/03/25 00:51:56;;;;;;;7.67;5.13;;;3.90;99.90;;;;;;5031878;28;20217;-80
2021/03/25 00:54:22;;;;;;;9.13;6.00;;;3.90;99.90;;;;;;5019909;28;20211;-80
2021/03/25 00:56:48;;;;;;;8.63;5.57;;;3.90;99.90;;;;;;5023290;28;20206;-80
2021/03/25 00:59:13;;;;;;;8.03;6.00;;;3.80;99.90;;;;;;5024079;28;20183;-80
2021/03/25 01:01:39;;;;;;;9.13;5.23;;;3.80;99.90;;;;;;5024513;28;20194;-81
2021/03/25 01:04:04;;;;;;;13.77;5.50;;;3.80;99.90;;;;;;5025785;28;20186;-80
2021/03/25 01:06:30;;;;;;;10.43;5.87;;;3.80;99.90;;;;;;5024080;28;20199;-80
2021/03/25 01:08:56;;;;;;;7.13;5.23;;;3.80;99.90;;;;;;5024161;28;20186;-80
2021/03/25 01:11:27;;;;;;;9.90;5.77;;;3.70;99.90;;;;;;5025409;28;20229;-80
2021/03/25 01:13:54;;;;;;;9.67;5.73;;;3.80;99.90;;;;;;5025517;28;20175;-80
2021/03/25 01:16:28;;;;;;;12.93;4.97;;;3.70;99.90;;;;;;5015893;28;20648;-80
2021/03/25 01:18:55;;;;;;;11.60;6.97;;;3.60;99.90;;;;;;5025493;28;20224;-80
2021/03/25 01:21:21;;;;;;;8.60;4.73;;;3.50;99.90;;;;;;5025660;28;20179;-84
2021/03/25 01:23:47;;;;;;;10.10;5.77;;;3.50;99.90;;;;;;5024319;28;20706;-80
2021/03/25 01:26:14;;;;;;;8.23;5.57;;;3.50;99.90;;;;;;5025489;28;20206;-80
2021/03/25 01:28:39;;;;;;;7.83;5.13;;;3.50;99.90;;;;;;5016240;28;20281;-80
2021/03/25 01:31:05;;;;;;;8.27;4.93;;;3.50;99.90;;;;;;5024223;28;20318;-80
2021/03/25 01:33:31;;;;;;;8.90;6.07;;;3.50;99.90;;;;;;5025413;28;20235;-80
2021/03/25 01:35:57;;;;;;;10.43;5.93;;;3.60;99.90;;;;;;5023976;28;20300;-80
2021/03/25 01:38:24;;;;;;;9.70;6.53;;;3.60;99.90;;;;;;5025209;28;20174;-80
2021/03/25 01:40:53;;;;;;;7.70;4.47;;;3.60;99.90;;;;;;5024401;28;20186;-80
2021/03/25 01:43:29;;;;;;;9.57;5.27;;;3.60;99.90;;;;;;5023683;28;20190;-80
2021/03/25 01:45:57;;;;;;;8.13;5.67;;;3.40;99.90;;;;;;5023463;28;20218;-80
2021/03/25 01:48:27;;;;;;;8.37;5.63;;;3.40;99.90;;;;;;5033201;28;20264;-81
2021/03/25 01:50:57;;;;;;;8.13;4.70;;;3.30;99.90;;;;;;5024342;28;20325;-81
2021/03/25 01:53:41;;;;;;;7.60;5.43;;;3.30;99.90;;;;;;5025197;28;20178;-80
2021/03/25 01:56:44;;;;;;;7.10;4.67;;;3.20;99.90;;;;;;5030728;28;20211;-81
2021/03/25 01:59:47;;;;;;;7.80;4.47;;;3.10;99.90;;;;;;5024167;28;20262;-80
2021/03/25 02:02:31;;;;;;;10.13;5.50;;;3.10;99.90;;;;;;5025090;28;20312;-80
2021/03/25 02:05:21;;;;;;;8.67;5.03;;;3.00;99.90;;;;;;5015103;28;20266;-80
2021/03/25 02:08:15;;;;;;;8.77;6.27;;;3.10;99.90;;;;;;5023814;28;20187;-80
2021/03/25 02:11:17;;;;;;;7.00;4.83;;;3.00;99.90;;;;;;5024685;28;20665;-81
2021/03/25 02:13:55;;;;;;;10.23;5.90;;;3.00;99.90;;;;;;5012386;28;20213;-81
2021/03/25 02:16:39;;;;;;;7.50;4.80;;;2.90;99.90;;;;;;5023196;28;20603;-80
2021/03/25 02:19:26;;;;;;;8.57;4.43;;;2.90;99.90;;;;;;5024870;28;20305;-81
2021/03/25 02:22:08;;;;;;;8.83;5.47;;;2.80;99.90;;;;;;5025874;28;20187;-80
2021/03/25 02:24:37;;;;;;;8.23;4.70;;;2.90;99.90;;;;;;5028619;28;20544;-80
2021/03/25 02:27:44;;;;;;;9.87;4.97;;;2.80;99.90;;;;;;5019637;28;20206;-80
2021/03/25 02:30:37;;;;;;;12.07;6.90;;;2.80;99.90;;;;;;5028492;28;20218;-81
2021/03/25 02:33:05;;;;;;;6.93;4.40;;;2.80;99.90;;;;;;5006037;28;20206;-81
2021/03/25 02:35:43;;;;;;;6.83;5.00;;;2.80;99.90;;;;;;5035795;28;20296;-81
2021/03/25 02:38:18;;;;;;;7.93;5.23;;;2.70;99.90;;;;;;5027948;28;20190;-80
2021/03/25 02:40:52;;;;;;;9.77;5.63;;;2.70;99.90;;;;;;5027159;28;20205;-80
2021/03/25 02:43:53;;;;;;;9.47;5.73;;;2.70;99.90;;;;;;5026906;28;20199;-80
2021/03/25 02:46:24;;;;;;;6.70;5.00;;;2.60;99.90;;;;;;5030068;28;20236;-80
2021/03/25 02:48:53;;;;;;;7.73;5.23;;;2.60;99.90;;;;;;5017119;28;20175;-81
2021/03/25 02:51:28;;;;;;;10.13;5.30;;;2.50;99.90;;;;;;5028085;28;20184;-80
2021/03/25 02:53:54;;;;;;;6.90;5.00;;;2.40;99.90;;;;;;5026628;28;20240;-81
2021/03/25 02:56:40;;;;;;;8.50;5.37;;;2.30;99.90;;;;;;5026280;28;20682;-80
2021/03/25 02:59:23;;;;;;;7.53;5.30;;;2.40;99.90;;;;;;5028231;28;20193;-80
2021/03/25 03:01:52;;;;;;;7.83;4.40;;;2.40;99.90;;;;;;5026806;28;20182;-80
2021/03/25 03:04:23;;;;;;;11.10;5.53;;;2.50;99.90;;;;;;5026058;28;20171;-80
2021/03/25 03:06:52;;;;;;;8.60;5.60;;;2.40;99.90;;;;;;5017427;28;20561;-80
2021/03/25 03:09:25;;;;;;;8.47;5.43;;;2.40;99.90;;;;;;5028039;28;20241;-81
2021/03/25 03:11:55;;;;;;;8.47;4.93;;;2.40;99.90;;;;;;5027901;28;20191;-80
2021/03/25 03:14:36;;;;;;;7.63;4.50;;;2.40;99.90;;;;;;5027509;28;20316;-80
2021/03/25 03:17:12;;;;;;;8.63;5.00;;;2.40;99.90;;;;;;5026081;28;21444;-80
2021/03/25 03:20:08;;;;;;;9.17;5.63;;;2.30;99.90;;;;;;5026435;28;20171;-80
2021/03/25 03:22:35;;;;;;;8.33;4.73;;;2.30;99.90;;;;;;5024568;28;20723;-81
2021/03/25 03:25:12;;;;;;;9.67;5.83;;;2.20;99.90;;;;;;5025805;28;20274;-81
2021/03/25 03:27:49;;;;;;;8.33;4.70;;;2.20;99.90;;;;;;5027217;28;20233;-80
2021/03/25 03:30:29;;;;;;;7.93;5.43;;;2.20;99.90;;;;;;5026090;28;20175;-81
2021/03/25 03:33:10;;;;;;;9.67;6.23;;;2.20;99.90;;;;;;5034619;28;20672;-80
2021/03/25 03:35:47;;;;;;;7.87;5.30;;;2.10;99.90;;;;;;5026918;28;20238;-80
2021/03/25 03:38:24;;;;;;;8.80;5.47;;;2.10;99.90;;;;;;5018089;28;20203;-81
2021/03/25 03:40:53;;;;;;;8.90;4.67;;;2.10;99.90;;;;;;5025617;28;20274;-80
2021/03/25 03:43:19;;;;;;;9.83;5.23;;;2.30;99.90;;;;;;5016802;28;20175;-81
2021/03/25 03:46:03;;;;;;;11.80;6.33;;;2.20;99.90;;;;;;5026751;28;20542;-80
2021/03/25 03:48:53;;;;;;;9.93;5.50;;;2.20;99.90;;;;;;5027076;28;20711;-80
2021/03/25 03:51:28;;;;;;;10.37;5.67;;;2.20;99.90;;;;;;5026690;28;20229;-80
2021/03/25 03:53:56;;;;;;;8.53;5.63;;;2.30;99.90;;;;;;5026923;28;20197;-81
2021/03/25 03:56:32;;;;;;;8.37;5.43;;;2.20;99.90;;;;;;5034858;28;20631;-80
2021/03/25 03:59:04;;;;;;;7.77;5.43;;;2.20;99.90;;;;;;5027195;28;20613;-80
2021/03/25 04:01:55;;;;;;;9.90;5.17;;;2.00;99.90;;;;;;5025620;28;20266;-80
2021/03/25 04:04:30;;;;;;;11.70;6.07;;;1.90;99.90;;;;;;5026613;28;20187;-80
2021/03/25 04:06:59;;;;;;;9.33;5.43;;;1.80;99.90;;;;;;5016944;28;20202;-81
2021/03/25 04:09:49;;;;;;;10.87;6.80;;;1.90;99.90;;;;;;5026897;28;20217;-80
2021/03/25 04:12:20;;;;;;;8.13;5.43;;;1.90;99.90;;;;;;4996608;28;20223;-80
2021/03/25 04:14:51;;;;;;;7.00;4.80;;;1.90;99.90;;;;;;5025467;28;21024;-80
2021/03/25 04:17:27;;;;;;;8.10;5.73;;;1.90;99.90;;;;;;5026867;28;20203;-80
2021/03/25 04:19:56;;;;;;;8.63;6.23;;;1.90;99.90;;;;;;5017022;28;20186;-81
2021/03/25 04:22:26;;;;;;;11.87;6.03;;;1.90;99.90;;;;;;5024720;28;20598;-81
2021/03/25 04:24:59;;;;;;;11.50;5.97;;;1.90;99.90;;;;;;5016278;28;20178;-80
2021/03/25 04:27:33;;;;;;;13.30;6.00;;;1.90;99.90;;;;;;5025060;28;20244;-80
2021/03/25 04:30:09;;;;;;;9.53;5.17;;;1.90;99.90;;;;;;5016646;28;20206;-80
2021/03/25 04:32:35;;;;;;;8.07;6.10;;;1.80;99.90;;;;;;5033595;28;20201;-80
2021/03/25 04:35:02;;;;;;;9.70;6.47;;;1.80;99.90;;;;;;5026005;28;20211;-81
2021/03/25 04:37:29;;;;;;;8.53;5.43;;;1.80;99.90;;;;;;5026550;28;20183;-81
2021/03/25 04:39:58;;;;;;;8.20;5.03;;;1.80;99.90;;;;;;5017979;28;20211;-80
2021/03/25 04:42:24;;;;;;;12.27;6.17;;;1.70;99.90;;;;;;5033960;28;20191;-80
2021/03/25 04:44:59;;;;;;;15.83;7.50;;;1.60;99.90;;;;;;5023970;28;20217;-81
2021/03/25 04:47:41;;;;;;;8.27;5.70;;;1.60;99.90;;;;;;5024495;28;20206;-80
2021/03/25 04:50:21;;;;;;;8.53;5.70;;;1.50;99.90;;;;;;5025210;28;20198;-80
2021/03/25 04:52:46;;;;;;;9.23;4.97;;;1.50;99.90;;;;;;5026305;28;20229;-80
2021/03/25 04:55:21;;;;;;;9.23;4.90;;;1.60;99.90;;;;;;5025803;28;20783;-80
2021/03/25 04:57:51;;;;;;;11.97;6.17;;;1.60;99.90;;;;;;5025767;28;20186;-80
2021/03/25 05:00:22;;;;;;;9.20;5.13;;;1.60;99.90;;;;;;5025786;28;20191;-80
2021/03/25 05:02:48;;;;;;;11.33;6.33;;;1.50;99.90;;;;;;5016753;28;20183;-81
2021/03/25 05:05:17;;;;;;;8.00;5.00;;;1.50;99.90;;;;;;5025604;28;20187;-81
2021/03/25 05:07:48;;;;;;;12.77;7.23;;;1.60;99.90;;;;;;5024827;28;20187;-80
2021/03/25 05:10:21;;;;;;;11.17;7.43;;;1.70;99.90;;;;;;5024347;28;20237;-80
2021/03/25 05:12:51;;;;;;;10.97;6.90;;;1.80;99.90;;;;;;5024492;28;20278;-81
2021/03/25 05:15:18;;;;;;;11.93;7.47;;;1.90;99.90;;;;;;5015167;28;20668;-80
2021/03/25 05:17:53;;;;;;;12.47;7.50;;;1.80;99.90;;;;;;5024436;28;20187;-79
2021/03/25 05:20:30;;;;;;;12.20;7.13;;;1.80;99.90;;;;;;5024126;28;20212;-80
2021/03/25 05:23:21;;;;;;;12.47;7.97;;;1.70;99.90;;;;;;5025585;28;20214;-80
2021/03/25 05:25:54;;;;;;;13.00;8.00;;;1.70;99.90;;;;;;5024170;28;20206;-81
2021/03/25 05:28:39;;;;;;;10.90;7.70;;;1.70;99.90;;;;;;5024071;28;20197;-80
2021/03/25 05:31:08;;;;;;;12.90;7.47;;;1.80;99.90;;;;;;5015688;28;20218;-81
2021/03/25 05:33:34;;;;;;;11.40;6.83;;;1.90;99.90;;;;;;5023890;28;20230;-80
2021/03/25 05:36:04;;;;;;;10.20;7.37;;;1.90;99.90;;;;;;5025575;28;20249;-80
2021/03/25 05:38:30;;;;;;;14.13;7.30;;;1.90;99.90;;;;;;5015187;28;20187;-79
2021/03/25 05:41:11;;;;;;;18.43;7.97;;;2.00;99.90;;;;;;5023183;28;20187;-80
2021/03/25 05:44:03;;;;;;;10.97;6.93;;;2.00;99.90;;;;;;5024312;28;20178;-80
2021/03/25 05:46:37;;;;;;;14.20;8.53;;;2.10;99.90;;;;;;5024176;28;20642;-80
2021/03/25 05:49:22;;;;;;;14.70;8.90;;;2.20;99.90;;;;;;5031673;28;20178;-80
2021/03/25 05:52:32;;;;;;;13.33;7.90;;;2.30;99.90;;;;;;5024607;28;20201;-80
2021/03/25 05:55:06;;;;;;;13.73;8.87;;;2.40;99.90;;;;;;5025085;28;20207;-80
2021/03/25 05:57:38;;;;;;;15.17;8.83;;;2.40;99.90;;;;;;5026294;28;20194;-80
2021/03/25 06:00:09;;;;;;;15.67;8.07;;;2.50;99.90;;;;;;5029705;28;20273;-81
2021/03/25 06:02:39;;;;;;;11.63;7.60;;;2.60;99.90;;;;;;5029669;28;20179;-81
2021/03/25 06:05:08;;;;;;;11.90;8.57;;;2.60;99.90;;;;;;5027759;28;20291;-80
2021/03/25 06:08:02;;;;;;;15.57;8.17;;;2.70;99.90;;;;;;5029496;28;20229;-80
2021/03/25 06:10:42;;;;;;;15.73;8.70;;;2.80;99.90;;;;;;5028005;28;20183;-80
2021/03/25 06:13:36;;;;;;;18.60;8.50;;;2.90;99.90;;;;;;5019635;28;20182;-81
2021/03/25 06:16:07;;;;;;;14.93;9.23;;;3.10;99.90;;;;;;5035673;28;20704;-80
2021/03/25 06:19:22;;;;;;;12.83;8.47;;;3.30;99.90;;;;;;5027592;28;20193;-81
2021/03/25 06:22:20;;;;;;;13.47;8.23;;;3.40;99.90;;;;;;5036366;28;20175;-80
2021/03/25 06:25:14;;;;;;;14.93;8.70;;;3.50;99.90;;;;;;5027204;28;20513;-80
2021/03/25 06:28:17;;;;;;;14.50;8.70;;;3.60;99.90;;;;;;5019472;28;20190;-81
2021/03/25 06:31:20;;;;;;;29.87;9.70;;;3.70;99.90;;;;;;5019097;28;20178;-80
2021/03/25 06:34:24;;;;;;;13.37;7.73;;;3.80;99.90;;;;;;5035843;28;20193;-80
2021/03/25 06:37:00;;;;;;;14.13;7.37;;;3.80;99.90;;;;;;5019182;28;20280;-81
2021/03/25 06:39:37;;;;;;;14.87;6.93;;;3.70;99.90;;;;;;5019594;28;20183;-80
2021/03/25 06:42:47;;;;;;;17.37;9.67;;;3.80;99.90;;;;;;5019318;28;20182;-80
2021/03/25 06:45:12;;;;;;;20.37;7.70;;;3.70;99.90;;;;;;5022881;28;20199;-80
2021/03/25 06:48:06;;;;;;;18.17;9.30;;;3.90;99.90;;;;;;5027097;28;20568;-80
2021/03/25 06:50:37;;;;;;;15.83;8.63;;;4.00;99.90;;;;;;5028499;28;20183;-81
2021/03/25 06:53:25;;;;;;;16.20;8.60;;;4.20;99.90;;;;;;5018509;28;20210;-80
2021/03/25 06:55:55;;;;;;;11.40;7.23;;;4.30;99.90;;;;;;5025652;28;20233;-80
2021/03/25 06:58:42;;;;;;;14.50;8.77;;;4.30;99.90;;;;;;5026160;28;20183;-81
2021/03/25 07:01:32;;;;;;;15.50;8.07;;;4.40;99.90;;;;;;5026071;28;20202;-81
2021/03/25 07:04:01;;;;;;;24.17;9.23;;;4.60;99.90;;;;;;5033851;28;20186;-81
2021/03/25 07:06:29;;;;;;;18.43;9.37;;;4.70;99.90;;;;;;5026716;28;20244;-81
2021/03/25 07:08:55;;;;;;;17.93;9.73;;;4.90;99.90;;;;;;5028174;28;20195;-81
2021/03/25 07:11:25;;;;;;;15.13;9.40;;;5.00;99.90;;;;;;5026800;28;20190;-81
2021/03/25 07:14:02;;;;;;;16.30;8.37;;;5.20;99.90;;;;;;5026659;28;20183;-80
2021/03/25 07:16:31;;;;;;;17.43;8.57;;;5.40;99.90;;;;;;5026120;28;20280;-81
2021/03/25 07:19:08;;;;;;;25.63;11.73;;;5.50;99.90;;;;;;5026540;28;20190;-81
2021/03/25 07:21:43;;;;;;;12.70;7.47;;;5.70;99.90;;;;;;5027770;28;20198;-80
2021/03/25 07:24:25;;;;;;;13.50;9.30;;;5.90;99.90;;;;;;5020833;28;20210;-79
2021/03/25 07:27:01;;;;;;;13.73;8.33;;;6.10;99.90;;;;;;5027919;28;20272;-80
2021/03/25 07:29:35;;;;;;;14.63;9.07;;;6.20;99.90;;;;;;5017299;28;20328;-80
2021/03/25 07:32:04;;;;;;;15.23;8.80;;;6.50;99.90;;;;;;5027003;28;20248;-80
2021/03/25 07:34:47;;;;;;;18.40;9.20;;;6.60;99.90;;;;;;5026112;28;20560;-80
2021/03/25 07:37:16;;;;;;;13.03;7.70;;;6.70;99.90;;;;;;5026117;28;20229;-80
2021/03/25 07:39:49;;;;;;;17.23;9.97;;;6.90;99.90;;;;;;5017740;28;20191;-81
2021/03/25 07:42:44;;;;;;;15.40;8.47;;;7.00;99.90;;;;;;5025783;28;20178;-82
2021/03/25 07:45:22;;;;;;;14.50;8.43;;;7.20;99.90;;;;;;5011547;28;20289;-82
2021/03/25 07:47:50;;;;;;;12.77;7.93;;;7.20;99.90;;;;;;5027048;28;20202;-80
2021/03/25 07:50:27;;;;;;;14.10;9.50;;;7.30;99.90;;;;;;5026809;28;20269;-82
2021/03/25 07:52:54;;;;;;;14.17;9.20;;;7.50;99.90;;;;;;5026723;28;20198;-81
2021/03/25 07:55:19;;;;;;;16.10;9.20;;;7.60;99.90;;;;;;5016967;28;20237;-80
2021/03/25 07:57:51;;;;;;;18.87;10.00;;;7.80;99.90;;;;;;5028196;28;20187;-78
2021/03/25 08:00:27;;;;;;;18.50;9.80;;;7.80;99.90;;;;;;5029025;28;20586;-82
2021/03/25 08:03:41;;;;;;;17.67;9.73;;;7.90;99.90;;;;;;5026866;28;20559;-80
2021/03/25 08:06:23;;;;;;;15.97;9.57;;;8.20;99.90;;;;;;4984198;28;20261;-80
2021/03/25 08:09:07;;;;;;;18.50;10.97;;;8.50;99.90;;;;;;5032002;28;20198;-81
2021/03/25 08:11:34;;;;;;;15.47;9.23;;;8.70;99.90;;;;;;5024364;28;20187;-80
2021/03/25 08:14:18;;;;;;;15.93;9.23;;;8.80;99.90;;;;;;5024170;28;20214;-80
2021/03/25 08:16:51;;;;;;;15.80;10.13;;;9.00;99.90;;;;;;5025281;28;20218;-81
2021/03/25 08:19:39;;;;;;;19.73;11.00;;;9.10;99.90;;;;;;5025223;28;20221;-80
2021/03/25 08:22:33;;;;;;;16.93;9.70;;;9.20;99.90;;;;;;5023636;28;20236;-80
2021/03/25 08:25:36;;;;;;;17.33;10.13;;;9.30;99.90;;;;;;5024186;28;20249;-81
2021/03/25 08:28:15;;;;;;;18.70;9.77;;;9.30;99.90;;;;;;5023575;28;20660;-81
2021/03/25 08:30:50;;;;;;;20.87;10.63;;;9.40;99.90;;;;;;5025108;28;20191;-80
2021/03/25 08:33:29;;;;;;;20.17;11.20;;;9.50;99.90;;;;;;5025405;28;20265;-81
2021/03/25 08:36:16;;;;;;;21.10;11.60;;;9.60;99.90;;;;;;5023839;28;20244;-81
2021/03/25 08:39:06;;;;;;;22.93;11.67;;;9.80;99.90;;;;;;5032619;28;20637;-80
2021/03/25 08:41:43;;;;;;;24.50;12.70;;;10.10;99.90;;;;;;5031925;28;20185;-81
2021/03/25 08:44:18;;;;;;;20.40;12.53;;;10.30;99.90;;;;;;5023860;28;20182;-80
2021/03/25 08:46:51;;;;;;;20.47;14.00;;;10.40;99.90;;;;;;5023558;28;20257;-81
2021/03/25 08:49:21;;;;;;;20.80;11.80;;;10.60;99.90;;;;;;5031924;28;20187;-81
2021/03/25 08:51:49;;;;;;;23.93;14.00;;;10.60;99.90;;;;;;5025463;28;20789;-80
2021/03/25 08:54:44;;;;;;;19.77;11.07;;;10.80;99.90;;;;;;5024510;28;20213;-80
2021/03/25 08:57:18;;;;;;;22.07;12.17;;;10.90;99.90;;;;;;5023796;28;20210;-81
2021/03/25 08:59:59;;;;;;;23.50;12.80;;;10.90;99.90;;;;;;5031754;28;20178;-82
2021/03/25 09:02:36;;;;;;;24.23;13.07;;;11.10;99.90;;;;;;5019795;28;20174;-81
2021/03/25 09:05:39;;;;;;;18.10;10.80;;;11.30;99.90;;;;;;5023736;28;20186;-81
2021/03/25 09:08:18;;;;;;;20.80;10.83;;;11.50;99.90;;;;;;4935927;28;20567;-82
2021/03/25 09:10:46;;;;;;;20.73;10.60;;;11.70;99.90;;;;;;5014990;28;20198;-81
2021/03/25 09:13:20;;;;;;;20.17;12.77;;;11.90;99.90;;;;;;5019968;28;20597;-80
2021/03/25 09:15:47;;;;;;;19.67;11.10;;;12.10;99.90;;;;;;5012746;28;20221;-82
2021/03/25 09:18:41;;;;;;;23.27;11.57;;;12.30;99.90;;;;;;5031755;28;20653;-81
2021/03/25 09:21:17;;;;;;;20.67;12.32;;;12.40;99.90;;;;;;5020968;28;20218;-79
2021/03/25 09:24:02;;;;;;;20.63;12.65;;;12.40;99.90;;;;;;5023294;28;20220;-81
2021/03/25 09:26:27;;;;;;;20.08;12.90;;;12.40;99.90;;;;;;5022954;28;20245;-81
2021/03/25 09:28:53;;;;;;;19.70;12.30;;;12.50;99.90;;;;;;5021470;28;20218;-82
2021/03/25 09:31:20;;;;;;;18.52;11.65;;;12.70;99.90;;;;;;5021316;28;20226;-81
2021/03/25 09:33:49;;;;;;;22.08;13.13;;;12.90;99.90;;;;;;5023581;28;20266;-82
2021/03/25 09:36:17;;;;;;;21.50;12.23;;;13.10;99.90;;;;;;5022430;28;20216;-80
2021/03/25 09:38:57;;;;;;;20.38;11.43;;;13.40;99.90;;;;;;5013041;28;20209;-79
2021/03/25 09:41:25;;;;;;;21.05;11.60;;;13.40;99.90;;;;;;5022598;28;20686;-79
2021/03/25 09:44:12;;;;;;;21.10;11.82;;;13.30;99.90;;;;;;5032261;28;20280;-79
2021/03/25 09:46:42;;;;;;;16.60;10.23;;;13.60;99.90;;;;;;5009668;28;20237;-81
2021/03/25 09:52:09;;;;;;;21.15;11.73;;;13.70;99.90;;;;;;5015285;28;20240;-80
2021/03/25 09:54:56;;;;;;;18.73;11.15;;;13.50;99.90;;;;;;5011467;28;21052;-80
2021/03/25 09:57:30;;;;;;;20.75;12.18;;;13.20;99.90;;;;;;5004676;28;20217;-80
2021/03/25 10:00:18;;;;;;;19.17;10.52;;;13.30;99.90;;;;;;5023195;28;20190;-80
2021/03/25 10:02:44;;;;;;;22.10;11.38;;;13.20;99.90;;;;;;5022522;28;20702;-80
2021/03/25 10:05:36;;;;;;;20.05;10.70;;;13.20;99.90;;;;;;5023197;28;20602;-80
2021/03/25 10:08:04;;;;;;;17.13;10.98;;;13.50;99.90;;;;;;5022782;28;20256;-80
2021/03/25 10:10:30;;;;;;;21.52;11.82;;;13.80;99.90;;;;;;5015355;28;20186;-79
2021/03/25 10:13:02;;;;;;;20.83;11.45;;;14.00;99.90;;;;;;5023361;28;20183;-80
2021/03/25 10:15:31;;;;;;;20.20;12.02;;;14.30;99.90;;;;;;5024796;28;20215;-79
2021/03/25 10:18:02;;;;;;;22.00;11.95;;;14.30;99.90;;;;;;5025455;28;20190;-79
2021/03/25 10:20:54;;;;;;;18.33;11.07;;;14.20;99.90;;;;;;5025991;28;20516;-80
2021/03/25 10:23:50;;;;;;;20.20;12.20;;;14.00;99.90;;;;;;5021412;28;20210;-79
2021/03/25 10:26:36;;;;;;;18.17;12.48;;;13.70;99.90;;;;;;5026010;28;20759;-79
2021/03/25 10:29:11;;;;;;;21.13;12.82;;;13.20;99.90;;;;;;5016206;28;20281;-78
2021/03/25 10:31:56;;;;;;;18.45;11.88;;;13.40;99.90;;;;;;5025122;28;20186;-80
2021/03/25 10:34:40;;;;;;;21.35;11.55;;;13.70;99.90;;;;;;5024475;28;20183;-79
2021/03/25 10:37:36;;;;;;;22.25;12.32;;;13.90;99.90;;;;;;5024055;28;20824;-78
2021/03/25 10:40:39;;;;;;;19.15;11.73;;;14.30;99.90;;;;;;5016709;28;20171;-79
2021/03/25 10:43:18;;;;;;;22.25;12.55;;;14.70;99.90;;;;;;5022951;28;20221;-79
2021/03/25 10:45:49;;;;;;;18.27;11.35;;;14.80;99.90;;;;;;5025620;28;20222;-78
2021/03/25 10:48:38;;;;;;;23.13;12.52;;;14.80;99.90;;;;;;5027488;28;20710;-79
2021/03/25 10:51:16;;;;;;;19.45;11.07;;;14.90;99.90;;;;;;5027534;28;20190;-79
2021/03/25 10:53:53;;;;;;;18.33;11.38;;;14.50;99.90;;;;;;5024616;28;20190;-79
2021/03/25 10:56:24;;;;;;;23.23;13.02;;;14.30;99.90;;;;;;5033974;28;20222;-79
2021/03/25 10:59:03;;;;;;;22.02;11.93;;;14.20;99.90;;;;;;5026539;28;20194;-79
2021/03/25 11:01:31;;;;;;;22.38;12.38;;;14.20;99.90;;;;;;5017510;28;20293;-79
2021/03/25 11:03:58;;;;;;;22.33;12.75;;;14.10;99.90;;;;;;5026545;28;20207;-79
2021/03/25 11:06:34;;;;;;;20.08;11.98;;;14.30;99.90;;;;;;5024932;28;20297;-80
2021/03/25 11:09:09;;;;;;;21.02;11.95;;;14.50;99.90;;;;;;5018965;28;20691;-80
2021/03/25 11:11:37;;;;;;;20.83;11.20;;;14.80;99.90;;;;;;5027011;28;20186;-80
2021/03/25 11:14:18;;;;;;;23.13;12.75;;;14.90;99.90;;;;;;5027790;28;20229;-79
2021/03/25 11:17:03;;;;;;;19.17;11.85;;;14.80;99.90;;;;;;5028016;28;20264;-79
2021/03/25 11:19:30;;;;;;;18.98;11.48;;;14.70;99.90;;;;;;5027626;28;20747;-79
2021/03/25 11:21:57;;;;;;;20.30;13.07;;;14.60;99.90;;;;;;5027710;28;20214;-79
2021/03/25 11:24:25;;;;;;;23.85;12.75;;;14.60;99.90;;;;;;5028193;28;20179;-79
2021/03/25 11:26:55;;;;;;;18.23;10.93;;;14.60;99.90;;;;;;5027642;28;20768;-81
2021/03/25 11:29:21;;;;;;;18.50;10.40;;;14.50;99.90;;;;;;5029047;28;20683;-80
2021/03/25 11:31:47;;;;;;;17.23;11.25;;;14.50;99.90;;;;;;5036374;28;20186;-79
2021/03/25 11:34:26;;;;;;;18.85;10.80;;;14.70;99.90;;;;;;5028422;28;21129;-79
2021/03/25 11:36:52;;;;;;;23.52;12.68;;;14.80;99.90;;;;;;5025705;28;20306;-81
2021/03/25 11:39:23;;;;;;;22.30;11.00;;;15.00;99.90;;;;;;5028906;28;20692;-80
2021/03/25 11:41:52;;;;;;;22.80;13.30;;;15.00;99.90;;;;;;5025808;28;20194;-81
2021/03/25 11:44:44;;;;;;;22.40;13.25;;;15.00;99.90;;;;;;5024229;28;20187;-79
2021/03/25 11:47:38;;;;;;;20.65;12.68;;;15.00;99.90;;;;;;5026480;28;20222;-79
2021/03/25 11:50:28;;;;;;;21.42;12.55;;;15.10;99.90;;;;;;5015504;28;20868;-79
2021/03/25 11:53:00;;;;;;;17.77;11.13;;;15.00;99.90;;;;;;5025358;28;20217;-80
2021/03/25 11:55:28;;;;;;;19.73;11.52;;;14.90;99.90;;;;;;5023523;28;20310;-80
2021/03/25 11:57:55;;;;;;;20.27;12.05;;;15.00;99.90;;;;;;5026708;28;20229;-80
2021/03/25 12:00:26;;;;;;;22.85;11.93;;;14.90;99.90;;;;;;5026553;28;20185;-79
2021/03/25 12:02:54;;;;;;;27.30;12.65;;;14.90;99.90;;;;;;5026660;28;20182;-80
2021/03/25 12:05:23;;;;;;;20.55;10.45;;;15.00;99.90;;;;;;5024103;28;20342;-79
2021/03/25 12:08:05;;;;;;;19.95;11.35;;;14.90;99.90;;;;;;5026226;28;20194;-80
2021/03/25 12:10:31;;;;;;;18.73;12.05;;;15.00;99.90;;;;;;5017053;28;20183;-78
2021/03/25 12:12:56;;;;;;;20.80;11.43;;;14.80;99.90;;;;;;5031335;28;20183;-78
2021/03/25 12:15:22;;;;;;;18.83;11.40;;;14.80;99.90;;;;;;5031759;28;20228;-78
2021/03/25 12:17:57;;;;;;;18.20;10.88;;;14.60;99.90;;;;;;5031689;28;20183;-78
2021/03/25 12:20:27;;;;;;;23.67;11.02;;;14.60;99.90;;;;;;5029430;28;20198;-78
2021/03/25 12:23:01;;;;;;;20.27;11.52;;;14.90;99.90;;;;;;5031028;28;20170;-78
2021/03/25 12:25:27;;;;;;;21.73;11.82;;;15.20;99.90;;;;;;5030329;28;20587;-78
2021/03/25 12:27:52;;;;;;;19.10;10.82;;;15.40;99.90;;;;;;5028191;28;20238;-78
2021/03/25 12:30:19;;;;;;;21.90;12.13;;;15.70;99.90;;;;;;5030222;28;20714;-78
2021/03/25 12:32:44;;;;;;;18.13;11.20;;;15.90;99.90;;;;;;5028270;28;20682;-78
2021/03/25 12:35:16;;;;;;;20.58;10.85;;;16.00;99.90;;;;;;5028339;28;20222;-78
2021/03/25 12:37:43;;;;;;;22.85;12.77;;;16.10;99.90;;;;;;5026997;28;20193;-78
2021/03/25 12:40:10;;;;;;;21.58;11.93;;;16.30;99.90;;;;;;5030184;28;20233;-78
2021/03/25 12:42:36;;;;;;;22.98;12.57;;;16.20;99.90;;;;;;5028569;28;20181;-78
2021/03/25 12:45:03;;;;;;;19.15;10.63;;;16.10;99.90;;;;;;5027495;28;20187;-78
2021/03/25 12:47:29;;;;;;;22.70;12.95;;;16.20;99.90;;;;;;5028905;28;20199;-78
2021/03/25 12:49:56;;;;;;;19.90;11.77;;;16.30;99.90;;;;;;5028767;28;20205;-78
2021/03/25 12:52:21;;;;;;;19.70;11.90;;;16.40;99.90;;;;;;5029298;28;20178;-78
2021/03/25 12:54:47;;;;;;;20.58;11.55;;;16.20;99.90;;;;;;5030278;28;20233;-78
2021/03/25 12:57:17;;;;;;;21.92;11.00;;;15.90;99.90;;;;;;5028304;28;20199;-78
2021/03/25 12:59:43;;;;;;;21.33;12.65;;;16.10;99.90;;;;;;5027782;28;20175;-78
2021/03/25 13:02:11;;;;;;;21.85;12.55;;;16.30;99.90;;;;;;5026612;28;20209;-78
2021/03/25 13:04:36;;;;;;;21.05;12.32;;;16.40;99.90;;;;;;5028238;28;20262;-78
2021/03/25 13:07:02;;;;;;;26.30;14.40;;;16.70;99.90;;;;;;5026979;28;20337;-78
2021/03/25 13:09:27;;;;;;;21.38;12.25;;;16.50;99.90;;;;;;5029756;28;20187;-78
2021/03/25 13:11:53;;;;;;;20.75;12.23;;;16.40;99.90;;;;;;5027502;28;20189;-78
2021/03/25 13:14:18;;;;;;;18.50;11.35;;;16.40;99.90;;;;;;5030191;28;20253;-78
2021/03/25 13:16:44;;;;;;;22.73;11.88;;;16.40;99.90;;;;;;5027909;28;20632;-78
2021/03/25 13:19:10;;;;;;;21.10;12.93;;;16.20;99.90;;;;;;5029672;28;20257;-78
2021/03/25 13:21:35;;;;;;;22.00;12.13;;;16.00;99.90;;;;;;5027634;28;20175;-78
2021/03/25 13:24:01;;;;;;;21.67;13.07;;;15.90;99.90;;;;;;5024545;28;20179;-78
2021/03/25 13:26:26;;;;;;;24.75;12.85;;;16.10;99.90;;;;;;5028209;28;20645;-78